^^
Bauneg Beg-Weather Station Historical Data
 
Daily Summary for October 18, 2018 Units:  English    Metric   Both
Daily Weekly Monthly Yearly Custom
  Current: High: Low: Average:
Temperature: 41 °F 41 °F 32.4 °F 35.7 °F
Dew Point: 19 °F 33.3 °F 17.8 °F 25.6 °F
Humidity: 41% 87% 41% 68%
Wind Speed: 2.5mph 8.1mph 0mph 1.8mph
Wind Gust: 5.8mph 12.5mph - -
WindEast - - SSW
Pressure: 29.85 in 29.85 in 29.59 in -
Precipitation: 0 in      
Historical Graphs
 
 
Tabular Data for October 18, 2018
Time Temperature Dew Point Pressure Wind Wind Speed Wind Gust Humidity Rainfall Rate (Hourly) solar
00:04 37 °F 33.3 °F 29.60 in Calm     86% 0 in 0.00 W/m2
00:07 37 °F 33.3 °F 29.59 in Calm     86% 0 in 0.00 W/m2
00:19 36.7 °F 33.1 °F 29.60 in NE 1.8 mph 3.4 mph 87% 0 in 0.00 W/m2
00:24 36.7 °F 32.9 °F 29.60 in SSW 0.2 mph 1.1 mph 86% 0 in 0.00 W/m2
00:29 36.5 °F 32.4 °F 29.60 in Calm     85% 0 in 0.00 W/m2
00:34 36.7 °F 32.5 °F 29.60 in SSW 1.6 mph 2.2 mph 85% 0 in 0.00 W/m2
00:39 36.7 °F 32.2 °F 29.61 in WSW 0.2 mph 1.1 mph 84% 0 in 0.00 W/m2
00:44 36.7 °F 32.5 °F 29.61 in SW 0.7 mph 1.1 mph 85% 0 in 0.00 W/m2
00:49 36.7 °F 32 °F 29.60 in West 2.5 mph 3.4 mph 83% 0 in 0.00 W/m2
00:54 36.9 °F 32.4 °F 29.60 in Calm     84% 0 in 0.00 W/m2
00:59 36.7 °F 32 °F 29.60 in SW 0.2 mph 1.1 mph 83% 0 in 0.00 W/m2
01:04 36.3 °F 31.8 °F 29.60 in NW 0.4 mph 1.1 mph 84% 0 in 0.00 W/m2
01:09 36.1 °F 31.5 °F 29.60 in West 0.9 mph 1.1 mph 83% 0 in 0.00 W/m2
01:14 36.1 °F 31.5 °F 29.60 in SW 0.7 mph 1.1 mph 83% 0 in 0.00 W/m2
01:19 36 °F 31.3 °F 29.61 in West 0.9 mph 1.1 mph 83% 0 in 0.00 W/m2
01:24 36 °F 30.9 °F 29.61 in West 1.1 mph 1.1 mph 82% 0 in 0.00 W/m2
01:29 36 °F 31.3 °F 29.61 in South 1.6 mph 2.2 mph 83% 0 in 0.00 W/m2
01:34 36 °F 31.8 °F 29.62 in West 1.6 mph 2.2 mph 85% 0 in 0.00 W/m2
01:39 36 °F 31.8 °F 29.62 in Calm     85% 0 in 0.00 W/m2
01:44 36 °F 31.3 °F 29.62 in Calm     83% 0 in 0.00 W/m2
01:49 35.8 °F 31.1 °F 29.62 in SW 0.2 mph 1.1 mph 83% 0 in 0.00 W/m2
01:54 36 °F 30.9 °F 29.62 in Calm     82% 0 in 0.00 W/m2
01:59 36 °F 31.3 °F 29.63 in SW 0.2 mph 1.1 mph 83% 0 in 0.00 W/m2
02:04 35.6 °F 31.3 °F 29.63 in Calm     84% 0 in 0.00 W/m2
02:09 35.2 °F 31.1 °F 29.64 in West 0.7 mph 1.1 mph 85% 0 in 0.00 W/m2
02:14 35.1 °F 30.9 °F 29.63 in NNE 3.6 mph 5.8 mph 85% 0 in 0.00 W/m2
02:19 35.2 °F 30 °F 29.64 in NNE 1.8 mph 2.2 mph 81% 0 in 0.00 W/m2
02:24 35.4 °F 29.8 °F 29.63 in WNW 1.6 mph 2.2 mph 80% 0 in 0.00 W/m2
02:29 35.4 °F 29.5 °F 29.64 in Calm     79% 0 in 0.00 W/m2
02:34 35.4 °F 29.5 °F 29.63 in SW 0.9 mph 1.1 mph 79% 0 in 0.00 W/m2
02:39 35.4 °F 29.3 °F 29.63 in South 0.9 mph 1.1 mph 78% 0 in 0.00 W/m2
02:44 35.1 °F 28.9 °F 29.64 in SE 0.9 mph 1.1 mph 78% 0 in 0.00 W/m2
02:49 34.9 °F 29.3 °F 29.64 in NNW 1.3 mph 2.2 mph 80% 0 in 0.00 W/m2
02:54 34.5 °F 29.3 °F 29.64 in SE 1.1 mph 1.1 mph 81% 0 in 0.00 W/m2
02:59 34.2 °F 28.9 °F 29.63 in West 0.2 mph 1.1 mph 81% 0 in 0.00 W/m2
03:04 34.2 °F 28.9 °F 29.64 in NNW 1.1 mph 1.1 mph 81% 0 in 0.00 W/m2
03:09 34 °F 28.8 °F 29.64 in Calm     81% 0 in 0.00 W/m2
03:14 34.2 °F 28.6 °F 29.64 in SE 0.4 mph 1.1 mph 80% 0 in 0.00 W/m2
03:19 34.3 °F 28.2 °F 29.65 in Calm     78% 0 in 0.00 W/m2
03:24 34.3 °F 28.8 °F 29.65 in NNE 0.7 mph 1.1 mph 80% 0 in 0.00 W/m2
03:29 34.3 °F 28.2 °F 29.66 in West 0.2 mph 1.1 mph 78% 0 in 0.00 W/m2
03:34 34.3 °F 28.4 °F 29.66 in Calm     79% 0 in 0.00 W/m2
03:39 34.3 °F 28.4 °F 29.66 in SW 2.9 mph 3.4 mph 79% 0 in 0.00 W/m2
03:44 34.9 °F 28 °F 29.65 in NW 2.2 mph 3.4 mph 76% 0 in 0.00 W/m2
03:49 34.9 °F 27.7 °F 29.66 in SSE 0.9 mph 2.2 mph 75% 0 in 0.00 W/m2
03:54 35.1 °F 27.3 °F 29.65 in WNW 1.8 mph 3.4 mph 73% 0 in 0.00 W/m2
03:59 34.9 °F 27.7 °F 29.67 in NNW 1.8 mph 3.4 mph 75% 0 in 0.00 W/m2
04:04 34.5 °F 27.7 °F 29.67 in SSW 0.4 mph 1.1 mph 76% 0 in 0.00 W/m2
04:09 34.2 °F 27.7 °F 29.67 in Calm     77% 0 in 0.00 W/m2
04:14 34.2 °F 27.3 °F 29.68 in ENE 0.7 mph 1.1 mph 76% 0 in 0.00 W/m2
04:19 34 °F 26.6 °F 29.68 in ENE 0.7 mph 1.1 mph 74% 0 in 0.00 W/m2
04:24 34 °F 26.8 °F 29.68 in NE 1.3 mph 2.2 mph 75% 0 in 0.00 W/m2
04:29 34.2 °F 26.8 °F 29.68 in NE 1.1 mph 1.1 mph 74% 0 in 0.00 W/m2
04:34 34.3 °F 25.2 °F 29.68 in WSW 3.1 mph 5.8 mph 69% 0 in 0.00 W/m2
04:39 34.5 °F 25.3 °F 29.68 in South 0.2 mph 1.1 mph 69% 0 in 0.00 W/m2
04:44 34.3 °F 25.5 °F 29.68 in SSW 0.2 mph 1.1 mph 70% 0 in 0.00 W/m2
04:49 34.2 °F 25 °F 29.68 in NE 0.7 mph 1.1 mph 69% 0 in 0.00 W/m2
04:54 34.2 °F 25 °F 29.69 in North 2.5 mph 3.4 mph 69% 0 in 0.00 W/m2
04:59 34.2 °F 25.3 °F 29.70 in West 2.2 mph 4.5 mph 70% 0 in 0.00 W/m2
05:04 34 °F 25.5 °F 29.69 in Calm     71% 0 in 0.00 W/m2
05:09 33.8 °F 25.3 °F 29.70 in WSW 1.3 mph 2.2 mph 71% 0 in 0.00 W/m2
05:14 34 °F 25.9 °F 29.70 in NE 1.8 mph 2.2 mph 72% 0 in 0.00 W/m2
05:19 34 °F 26.2 °F 29.70 in SSW 2 mph 2.2 mph 73% 0 in 0.00 W/m2
05:24 33.6 °F 26.6 °F 29.70 in NW 0.9 mph 1.1 mph 75% 0 in 0.00 W/m2
05:29 33.6 °F 26.6 °F 29.70 in NE 3.8 mph 6.9 mph 75% 0 in 0.00 W/m2
05:34 33.4 °F 26.6 °F 29.70 in SW 3.4 mph 4.5 mph 76% 0 in 0.00 W/m2
05:39 33.4 °F 27.7 °F 29.71 in SSW 1.1 mph 2.2 mph 79% 0 in 0.00 W/m2
05:44 33.1 °F 27.3 °F 29.72 in WSW 0.2 mph 1.1 mph 79% 0 in 0.00 W/m2
05:49 32.9 °F 27.3 °F 29.72 in NW 2.2 mph 3.4 mph 80% 0 in 0.00 W/m2
05:54 32.9 °F 27.3 °F 29.72 in West 0.9 mph 1.1 mph 80% 0 in 0.00 W/m2
05:59 32.7 °F 27.1 °F 29.73 in Calm     80% 0 in 0.00 W/m2
06:04 32.7 °F 27.7 °F 29.73 in ESE 0.9 mph 1.1 mph 82% 0 in 0.00 W/m2
06:09 32.7 °F 27 °F 29.73 in SW 2.5 mph 3.4 mph 79% 0 in 0.00 W/m2
06:14 32.7 °F 27.1 °F 29.74 in Calm     80% 0 in 0.00 W/m2
06:19 32.5 °F 26.8 °F 29.74 in WNW 0.9 mph 2.2 mph 79% 0 in 0.00 W/m2
06:24 32.5 °F 26.4 °F 29.74 in SE 2.7 mph 3.4 mph 78% 0 in 0.00 W/m2
06:29 32.7 °F 26.6 °F 29.75 in Calm     78% 0 in 0.00 W/m2
06:34 32.4 °F 26.2 °F 29.75 in NW 2.5 mph 3.4 mph 78% 0 in 0.00 W/m2
06:39 32.9 °F 26.1 °F 29.74 in WSW 2.5 mph 3.4 mph 76% 0 in 0.00 W/m2
06:44 32.7 °F 26.2 °F 29.75 in NE 0.4 mph 1.1 mph 77% 0 in 0.00 W/m2
06:49 32.4 °F 26.2 °F 29.75 in Calm     78% 0 in 0.00 W/m2
06:54 32.4 °F 25.9 °F 29.75 in WNW 2.2 mph 3.4 mph 77% 0 in 0.36 W/m2
06:59 32.5 °F 26.4 °F 29.76 in West 1.3 mph 2.2 mph 78% 0 in 2.57 W/m2
07:04 32.7 °F 26.1 °F 29.76 in NE 3.4 mph 5.8 mph 76% 0 in 3.79 W/m2
07:09 32.9 °F 25.9 °F 29.76 in SW 0.7 mph 1.1 mph 75% 0 in 6.48 W/m2
07:14 32.7 °F 26.2 °F 29.77 in NNW 0.9 mph 2.2 mph 77% 0 in 8.19 W/m2
07:19 32.7 °F 25.3 °F 29.76 in ESE 1.3 mph 2.2 mph 74% 0 in 12.11 W/m2
07:24 32.9 °F 25.9 °F 29.76 in NNW 2.2 mph 3.4 mph 75% 0 in 15.17 W/m2
07:29 33.1 °F 24.3 °F 29.77 in SSW 2 mph 3.4 mph 70% 0 in 17.73 W/m2
07:34 33.4 °F 23.5 °F 29.77 in WNW 1.8 mph 2.2 mph 67% 0 in 19.94 W/m2
07:39 33.6 °F 23.4 °F 29.77 in North 1.3 mph 2.2 mph 66% 0 in 22.51 W/m2
07:44 33.6 °F 24.4 °F 29.78 in NW 1.3 mph 2.2 mph 69% 0 in 24.22 W/m2
07:49 33.8 °F 23.4 °F 29.78 in North 4.7 mph 6.9 mph 65% 0 in 28.14 W/m2
07:54 34 °F 23.5 °F 29.78 in NNW 2.5 mph 3.4 mph 65% 0 in 33.39 W/m2
07:59 34.2 °F 23.2 °F 29.78 in SSW 2.9 mph 4.5 mph 64% 0 in 30.34 W/m2
08:04 34.3 °F 23.4 °F 29.79 in North 4.5 mph 6.9 mph 64% 0 in 31.19 W/m2
08:09 34.2 °F 22.1 °F 29.79 in WNW 1.8 mph 2.2 mph 61% 0 in 35.97 W/m2
08:14 34.3 °F 22.6 °F 29.79 in WNW 1.1 mph 3.4 mph 62% 0 in 35.48 W/m2
08:19 34.3 °F 23 °F 29.80 in NW 3.1 mph 4.5 mph 63% 0 in 36.82 W/m2
08:24 34.5 °F 22.1 °F 29.80 in North 2.2 mph 3.4 mph 60% 0 in 38.53 W/m2
08:29 34.7 °F 21.4 °F 29.80 in NE 1.6 mph 2.2 mph 58% 0 in 68.51 W/m2
08:34 35.1 °F 21.7 °F 29.80 in North 2.7 mph 3.4 mph 58% 0 in 41.10 W/m2
08:39 35.2 °F 22.6 °F 29.81 in ESE 1.8 mph 3.4 mph 60% 0 in 142.64 W/m2
08:44 35.8 °F 21.6 °F 29.81 in SSE 1.1 mph 1.1 mph 56% 0 in 167.36 W/m2
08:49 36.5 °F 22.6 °F 29.81 in WNW 2.2 mph 4.5 mph 57% 0 in 202.95 W/m2
08:54 36.3 °F 21.7 °F 29.82 in NW 5.4 mph 6.9 mph 55% 0 in 55.41 W/m2
08:59 36.5 °F 21 °F 29.81 in NNE 2.9 mph 4.5 mph 53% 0 in 232.07 W/m2
09:04 36.7 °F 21.6 °F 29.81 in WSW 1.3 mph 2.2 mph 54% 0 in 242.47 W/m2
09:09 37 °F 21.9 °F 29.81 in WSW 1.1 mph 2.2 mph 54% 0 in 253.24 W/m2
09:14 37.4 °F 22.3 °F 29.82 in NNE 2.9 mph 4.5 mph 54% 0 in 271.10 W/m2
09:19 37.2 °F 21.7 °F 29.82 in WSW 4.7 mph 9.2 mph 53% 0 in 283.20 W/m2
09:24 37 °F 21.6 °F 29.82 in NNE 1.6 mph 4.5 mph 53% 0 in 293.24 W/m2
09:29 37.2 °F 20.3 °F 29.81 in West 3.1 mph 4.5 mph 50% 0 in 308.78 W/m2
09:34 37.2 °F 20.3 °F 29.82 in SW 3.8 mph 5.8 mph 50% 0 in 321.01 W/m2
09:39 37.2 °F 20.3 °F 29.82 in NNE 3.4 mph 4.5 mph 50% 0 in 327.00 W/m2
09:44 37.9 °F 20.5 °F 29.82 in NNW 4 mph 4.5 mph 49% 0 in 368.23 W/m2
09:49 38.1 °F 20.1 °F 29.83 in WSW 4 mph 5.8 mph 48% 0 in 353.91 W/m2
09:54 37.8 °F 20.8 °F 29.83 in NNE 0.2 mph 1.1 mph 50% 0 in 363.95 W/m2
09:59 38.3 °F 20.3 °F 29.82 in NNW 6.5 mph 9.2 mph 48% 0 in 367.01 W/m2
10:04 38.3 °F 20.3 °F 29.83 in West 1.3 mph 2.2 mph 48% 0 in 382.18 W/m2
10:09 38.7 °F 19.2 °F 29.83 in WSW 5.1 mph 8.1 mph 45% 0 in 396.00 W/m2
10:14 38.3 °F 17.8 °F 29.83 in West 8.1 mph 12.5 mph 43% 0 in 412.03 W/m2
10:19 38.5 °F 18.5 °F 29.83 in NE 3.8 mph 4.5 mph 44% 0 in 417.28 W/m2
10:24 39 °F 19.4 °F 29.83 in NNE 5.1 mph 5.8 mph 45% 0 in 434.66 W/m2
10:29 39.2 °F 20.1 °F 29.83 in SSW 4 mph 4.5 mph 46% 0 in 145.21 W/m2
10:34 39.2 °F 19 °F 29.83 in NNE 4.9 mph 5.8 mph 44% 0 in 474.05 W/m2
10:39 39.2 °F 18.5 °F 29.83 in West 3.6 mph 5.8 mph 43% 0 in 481.52 W/m2
10:44 39 °F 18.9 °F 29.84 in NNE 2.9 mph 4.5 mph 44% 0 in 484.45 W/m2
10:49 39.4 °F 20.3 °F 29.83 in SSW 1.3 mph 2.2 mph 46% 0 in 500.11 W/m2
10:54 40.3 °F 19 °F 29.83 in East 3.8 mph 5.8 mph 42% 0 in 511.37 W/m2
10:59 39.9 °F 19.2 °F 29.83 in West 3.4 mph 5.8 mph 43% 0 in 517.48 W/m2
11:04 39.7 °F 18.5 °F 29.83 in NNE 4 mph 6.9 mph 42% 0 in 550.51 W/m2
11:09 39.7 °F 19.6 °F 29.83 in SSW 1.1 mph 1.1 mph 44% 0 in 576.08 W/m2
11:14 40.5 °F 20.3 °F 29.83 in WSW 4.3 mph 5.8 mph 44% 0 in 562.99 W/m2
11:19 41 °F 19 °F 29.83 in West 1.1 mph 2.2 mph 41% 0 in 585.62 W/m2
11:24 40.5 °F 21.4 °F 29.83 in SW 1.3 mph 2.2 mph 46% 0 in 608.99 W/m2
11:29 40.5 °F 20.3 °F 29.84 in North 4 mph 5.8 mph 44% 0 in 592.96 W/m2
11:34 40.8 °F 19.6 °F 29.83 in WNW 4 mph 6.9 mph 42% 0 in 607.77 W/m2
11:39 40.6 °F 19.4 °F 29.84 in NNW 2.5 mph 4.5 mph 42% 0 in 621.22 W/m2
11:44 40.8 °F 20.7 °F 29.84 in WNW 3.4 mph 4.5 mph 44% 0 in 209.93 W/m2
11:49 40.6 °F 21 °F 29.84 in WSW 3.8 mph 5.8 mph 45% 0 in 79.27 W/m2
11:54 39.9 °F 19.8 °F 29.85 in ENE 2.2 mph 3.4 mph 44% 0 in 579.14 W/m2
11:59 41 °F 19 °F 29.85 in East 2.5 mph 5.8 mph 41% 0 in 582.93 W/m2
MaineWeather, Bauneg Beg
Compliments of Weather Underground - 4 mb